createdAt,value
2018-09-25T00:02:22.760Z,55.2
2018-09-25T00:07:18.975Z,55.2
2018-09-25T00:12:14.263Z,55.1
2018-09-25T00:17:09.938Z,55.1
2018-09-25T00:22:06.099Z,54.8
2018-09-25T00:27:04.941Z,54.6
2018-09-25T00:31:59.835Z,54.4
2018-09-25T00:36:55.683Z,54.2
2018-09-25T00:41:51.276Z,54.1
2018-09-25T00:46:46.962Z,53.9
2018-09-25T00:51:43.422Z,54.1
2018-09-25T00:56:39.216Z,53.9
2018-09-25T01:01:35.288Z,53.9
2018-09-25T01:06:31.210Z,53.9
2018-09-25T01:11:27.083Z,53.7
2018-09-25T01:16:22.884Z,54
2018-09-25T01:21:18.701Z,53.9
2018-09-25T01:26:14.300Z,54
2018-09-25T01:31:09.561Z,54
2018-09-25T01:36:05.503Z,53.9
2018-09-25T01:41:01.130Z,53.9
2018-09-25T01:45:56.727Z,54
2018-09-25T01:50:52.478Z,54.1
2018-09-25T01:55:48.285Z,54.1
2018-09-25T02:00:44.194Z,54.2
2018-09-25T02:05:40.112Z,54.2
2018-09-25T02:10:35.540Z,54.3
2018-09-25T02:15:31.487Z,54.4
2018-09-25T02:20:26.910Z,54.4
2018-09-25T02:25:23.117Z,54.4
2018-09-25T02:30:18.934Z,54.5
2018-09-25T02:35:14.727Z,54.4
2018-09-25T02:40:10.624Z,54.5
2018-09-25T02:45:06.280Z,54.4
2018-09-25T02:50:02.127Z,54.3
2018-09-25T02:54:57.888Z,54.6
2018-09-25T02:59:53.596Z,54.6
2018-09-25T03:04:49.480Z,54.6
2018-09-25T03:09:45.011Z,54.7
2018-09-25T03:14:40.860Z,54.9
2018-09-25T03:19:36.520Z,54.9
2018-09-25T03:24:32.209Z,54.8
2018-09-25T03:29:27.249Z,54.4
2018-09-25T03:34:22.949Z,54.3
2018-09-25T03:39:18.449Z,53.8
2018-09-25T03:44:14.009Z,53.7
2018-09-25T03:49:09.674Z,53.6
2018-09-25T03:54:05.240Z,53.6
2018-09-25T03:59:01.044Z,53.6
2018-09-25T04:03:57.491Z,53.7
2018-09-25T04:08:53.116Z,53.7
2018-09-25T04:13:48.736Z,53.7
2018-09-25T04:18:44.279Z,53.7
2018-09-25T04:23:40.296Z,53.6
2018-09-25T04:28:35.921Z,53.3
2018-09-25T04:33:31.334Z,52.8
2018-09-25T04:38:27.074Z,53
2018-09-25T04:43:23.279Z,52.8
2018-09-25T04:48:18.950Z,52.6
2018-09-25T04:53:14.889Z,52.6
2018-09-25T04:58:10.676Z,52.6
2018-09-25T05:03:10.633Z,52.8
2018-09-25T05:08:05.254Z,52.8
2018-09-25T05:13:00.926Z,52.9
2018-09-25T05:17:56.557Z,53.2
2018-09-25T05:22:51.226Z,53.3
2018-09-25T05:27:47.039Z,53.2
2018-09-25T05:32:42.573Z,53.2
2018-09-25T05:37:38.339Z,53.4
2018-09-25T05:42:33.438Z,53.2
2018-09-25T05:47:29.018Z,53.2
2018-09-25T05:52:24.816Z,53.4
2018-09-25T05:57:20.458Z,53.3
2018-09-25T06:02:16.624Z,53.1
2018-09-25T06:07:11.436Z,53.1
2018-09-25T06:12:08.031Z,53.2
2018-09-25T06:17:03.670Z,52.8
2018-09-25T06:21:59.887Z,52.3
2018-09-25T06:26:55.120Z,52.2
2018-09-25T06:31:50.431Z,52.2
2018-09-25T06:36:46.002Z,52
2018-09-25T06:41:42.016Z,52.1
2018-09-25T06:46:38.206Z,51.8
2018-09-25T06:51:34.037Z,51.6
2018-09-25T06:56:29.789Z,51.9
2018-09-25T07:01:25.568Z,51.5
2018-09-25T07:06:21.735Z,51.2
2018-09-25T07:11:18.792Z,50.8
2018-09-25T07:16:13.957Z,50.5
2018-09-25T07:21:09.224Z,50.3
2018-09-25T07:26:04.974Z,50
2018-09-25T07:31:00.944Z,49.8
2018-09-25T07:35:56.884Z,49.7
2018-09-25T07:40:52.628Z,48.6
2018-09-25T07:45:48.522Z,47.2
2018-09-25T07:50:44.098Z,47.9
2018-09-25T07:55:40.074Z,48.1
2018-09-25T08:00:36.281Z,48.2
2018-09-25T08:05:32.013Z,46.5
2018-09-25T08:10:27.932Z,45.7
2018-09-25T08:15:23.737Z,45.4
2018-09-25T08:20:19.886Z,45
2018-09-25T08:25:15.103Z,45
2018-09-25T08:30:11.189Z,44.4
2018-09-25T08:35:07.053Z,43.6
2018-09-25T08:40:02.926Z,43.1
2018-09-25T08:44:58.833Z,42.8
2018-09-25T08:49:54.955Z,41.9
2018-09-25T08:54:50.641Z,42.2
2018-09-25T08:59:46.596Z,41.6
2018-09-25T09:04:42.175Z,41.1
2018-09-25T09:09:38.011Z,41.2
2018-09-25T09:14:34.096Z,40.7
2018-09-25T09:19:29.697Z,40.2
2018-09-25T09:24:25.185Z,39.6
2018-09-25T09:29:20.270Z,39.6
2018-09-25T09:34:16.059Z,37.9
2018-09-25T09:39:11.978Z,37.3
2018-09-25T09:44:07.606Z,38.3
2018-09-25T09:49:03.706Z,37.4
2018-09-25T09:53:59.879Z,37.4
2018-09-25T09:58:56.530Z,36.1
2018-09-25T10:03:52.595Z,35.9
2018-09-25T10:08:48.419Z,34
2018-09-25T10:13:44.353Z,34.5
2018-09-25T10:18:40.275Z,33.8
2018-09-25T10:23:36.258Z,34
2018-09-25T10:28:32.584Z,34.5
2018-09-25T10:33:28.115Z,34
2018-09-25T10:38:23.860Z,33.4
2018-09-25T10:43:19.686Z,33.4
2018-09-25T10:48:15.553Z,33.4
2018-09-25T10:53:11.595Z,32.9
2018-09-25T10:58:07.617Z,33.5
2018-09-25T11:03:03.776Z,33.3
2018-09-25T11:07:59.869Z,33.3
2018-09-25T11:12:55.983Z,33.1
2018-09-25T11:17:51.551Z,32.1
2018-09-25T11:22:47.659Z,31.6
2018-09-25T11:27:43.576Z,31.7
2018-09-25T11:32:39.727Z,31.4
2018-09-25T11:37:35.859Z,31.5
2018-09-25T11:42:31.903Z,31.3
2018-09-25T11:47:27.851Z,31.1
2018-09-25T11:52:23.785Z,30.9
2018-09-25T11:57:19.931Z,30.9
2018-09-25T12:02:16.139Z,31.1
2018-09-25T12:07:12.383Z,31
2018-09-25T12:12:08.016Z,31
2018-09-25T12:17:03.847Z,31.1
2018-09-25T12:21:59.657Z,31.5
2018-09-25T12:26:55.598Z,31.5
2018-09-25T12:31:51.420Z,31.9
2018-09-25T12:36:47.562Z,32.6
2018-09-25T12:41:43.316Z,32.6
2018-09-25T12:46:38.920Z,32.3
2018-09-25T12:51:34.766Z,31.5
2018-09-25T12:56:30.707Z,32
2018-09-25T13:01:26.330Z,30.9
2018-09-25T13:06:22.180Z,30.2
2018-09-25T13:11:18.032Z,30.1
2018-09-25T13:16:13.435Z,29.7
2018-09-25T13:21:09.298Z,29.2
2018-09-25T13:26:05.094Z,29.4
2018-09-25T13:31:00.936Z,28.4
2018-09-25T13:35:56.578Z,28.1
2018-09-25T13:40:52.528Z,29
2018-09-25T13:45:48.318Z,29
2018-09-25T13:50:43.959Z,29.6
2018-09-25T13:55:39.657Z,29.5
2018-09-25T14:00:35.402Z,29.7
2018-09-25T14:05:31.219Z,29.9
2018-09-25T14:10:26.793Z,30.8
2018-09-25T14:15:22.343Z,30.3
2018-09-25T14:20:18.063Z,29.9
2018-09-25T14:25:13.902Z,29.6
2018-09-25T14:30:09.731Z,29.9
2018-09-25T14:35:05.525Z,30.3
2018-09-25T14:40:01.359Z,29.8
2018-09-25T14:44:57.263Z,29.9
2018-09-25T14:49:52.765Z,29.5
2018-09-25T14:54:48.719Z,29.6
2018-09-25T14:59:44.468Z,29.7
2018-09-25T15:04:40.672Z,30
2018-09-25T15:09:36.208Z,30.2
2018-09-25T15:14:32.227Z,30.4
2018-09-25T15:19:27.895Z,30.8
2018-09-25T15:24:23.971Z,30.7
2018-09-25T15:29:19.974Z,30.5
2018-09-25T15:34:16.105Z,30.4
2018-09-25T15:39:11.916Z,30.7
2018-09-25T15:44:07.591Z,30.9
2018-09-25T15:49:03.262Z,31.2
2018-09-25T15:53:59.985Z,31.1
2018-09-25T15:58:56.046Z,31.1
2018-09-25T16:03:51.390Z,30.9
2018-09-25T16:08:47.214Z,30.8
2018-09-25T16:13:43.001Z,30.7
2018-09-25T16:18:38.479Z,31.1
2018-09-25T16:23:34.390Z,31.2
2018-09-25T16:28:29.984Z,31.2
2018-09-25T16:33:25.492Z,31.5
2018-09-25T16:38:20.551Z,31.4
2018-09-25T16:43:16.442Z,31.6
2018-09-25T16:48:12.559Z,31.9
2018-09-25T16:53:08.849Z,32.3
2018-09-25T16:58:04.599Z,32.2
2018-09-25T17:03:00.587Z,32.4
2018-09-25T17:07:56.177Z,32.7
2018-09-25T17:12:52.175Z,32.8
2018-09-25T17:17:48.628Z,33
2018-09-25T17:22:44.077Z,32.8
2018-09-25T17:27:40.008Z,32.9
2018-09-25T17:32:35.928Z,33.2
2018-09-25T17:37:32.127Z,33.4
2018-09-25T17:42:27.992Z,33.4
2018-09-25T17:47:23.336Z,33.4
2018-09-25T17:52:19.325Z,33.6
2018-09-25T17:57:15.336Z,33.3
2018-09-25T18:02:11.572Z,33.1
2018-09-25T18:07:07.355Z,33.1
2018-09-25T18:12:03.110Z,33
2018-09-25T18:16:58.807Z,33.2
2018-09-25T18:21:54.615Z,33
2018-09-25T18:26:50.649Z,33.3
2018-09-25T18:31:47.178Z,33
2018-09-25T18:36:42.650Z,33.5
2018-09-25T18:41:38.521Z,32.9
2018-09-25T18:46:34.866Z,32.9
2018-09-25T18:51:30.809Z,33
2018-09-25T18:56:26.649Z,33.2
2018-09-25T19:01:23.337Z,32.8
2018-09-25T19:06:19.165Z,32.9
2018-09-25T19:11:15.406Z,32.9
2018-09-25T19:16:11.504Z,33.3
2018-09-25T19:21:06.965Z,33.3
2018-09-25T19:26:02.764Z,33.3
2018-09-25T19:30:59.619Z,33.3
2018-09-25T20:43:14.072Z,34.3
2018-09-25T20:48:09.521Z,34.7
2018-09-25T20:53:05.664Z,34.9
2018-09-25T20:58:01.727Z,35
2018-09-25T21:02:57.402Z,34.9
2018-09-25T21:07:53.328Z,35
2018-09-25T21:12:49.110Z,35
2018-09-25T21:17:44.934Z,35.3
2018-09-25T21:22:41.162Z,35.6
2018-09-25T21:27:37.258Z,35.8
2018-09-25T21:32:33.963Z,35.8
2018-09-25T21:37:29.759Z,35.8
2018-09-25T21:42:25.861Z,35.9
2018-09-25T21:47:21.729Z,36.1
2018-09-25T21:52:18.090Z,36.2
2018-09-25T21:57:14.758Z,36.4
2018-09-25T22:02:11.603Z,36.5
2018-09-25T22:07:07.176Z,36.6
2018-09-25T22:12:03.115Z,36.8
2018-09-25T22:16:59.272Z,36.8
2018-09-25T22:21:54.953Z,37.1
2018-09-25T22:26:51.031Z,37.2
2018-09-25T22:31:46.778Z,37.3
2018-09-25T22:36:42.917Z,37.4
2018-09-25T22:41:38.998Z,37.6
2018-09-25T22:46:35.568Z,37.6
2018-09-25T22:51:31.215Z,37.7
2018-09-25T22:56:27.605Z,38.1
2018-09-25T23:01:24.526Z,38
2018-09-25T23:06:20.071Z,38.1
2018-09-25T23:11:16.127Z,38.1
2018-09-25T23:16:12.556Z,38.3
2018-09-25T23:21:08.459Z,38.4
2018-09-25T23:26:04.609Z,38.2
2018-09-25T23:31:00.430Z,38.5
2018-09-25T23:35:56.579Z,38.7
2018-09-25T23:40:52.310Z,39
2018-09-25T23:45:49.147Z,39.3
2018-09-25T23:50:44.915Z,39.2
2018-09-25T23:55:40.769Z,39.2
